South Orleans, Massachusetts
Current Conditions -  °F | °C
As of 2:52 PM on Thursday 30 Oct 2014 (Local Time) from KCQX Reporting Station
Few Clouds Few Clouds  
Wind Chill: 58°   Ceiling: Unl
Heat Index: 58°   Visibility: 10mi
Dew Point: 40°   Wind: 0mph
Humidity: 51%   Direction: NA
Pressure: 29.92"   Gusts: NA
Location:  41.75°N, 69.99°W
Report Text: KCQX 301852Z AUTO 00000KT 10SM FEW065 14/04 A2992 RMK AO2 SLP131 T01440044
Loading
Personal Weather Stations






























Interactive Weather Map
Tropical Storm Tracking
New forecast layout! Learn more

10-Day Weather Forecast

Advertisements
Track Severe Weather on mobile